createdAt,value
2017-10-20T00:02:46.524Z,9.80
2017-10-20T00:07:33.508Z,9.80
2017-10-20T00:12:20.797Z,9.70
2017-10-20T00:17:07.356Z,9.60
2017-10-20T00:21:54.664Z,9.50
2017-10-20T00:26:41.223Z,9.50
2017-10-20T00:31:27.824Z,9.80
2017-10-20T00:36:15.152Z,9.70
2017-10-20T00:41:01.764Z,9.60
2017-10-20T00:45:49.364Z,9.50
2017-10-20T00:50:35.998Z,9.50
2017-10-20T00:55:22.573Z,9.50
2017-10-20T01:00:09.904Z,9.50
2017-10-20T01:04:57.208Z,9.40
2017-10-20T01:09:43.796Z,9.40
2017-10-20T01:14:30.375Z,9.50
2017-10-20T01:19:17.720Z,9.40
2017-10-20T01:24:05.048Z,9.40
2017-10-20T01:28:52.341Z,9.30
2017-10-20T01:33:38.933Z,9.30
2017-10-20T01:38:25.521Z,9.20
2017-10-20T01:43:13.180Z,9.30
2017-10-20T01:47:59.713Z,9.30
2017-10-20T01:52:46.268Z,9.30
2017-10-20T01:57:32.869Z,9.50
2017-10-20T02:02:19.541Z,9.30
2017-10-20T02:07:06.844Z,9.40
2017-10-20T02:11:53.408Z,9.30
2017-10-20T02:16:39.992Z,9.40
2017-10-20T02:21:26.621Z,9.40
2017-10-20T02:26:13.264Z,9.40
2017-10-20T02:31:00.572Z,9.40
2017-10-20T02:35:47.149Z,9.30
2017-10-20T02:40:33.708Z,9.30
2017-10-20T02:45:20.314Z,9.20
2017-10-20T02:50:07.204Z,9.20
2017-10-20T02:54:53.740Z,9.10
2017-10-20T02:59:40.294Z,9.00
2017-10-20T03:04:27.647Z,9.10
2017-10-20T03:09:14.972Z,9.00
2017-10-20T03:14:01.785Z,9.00
2017-10-20T03:18:48.455Z,8.90
2017-10-20T03:23:35.375Z,8.90
2017-10-20T03:28:21.941Z,8.90
2017-10-20T03:33:08.530Z,8.80
2017-10-20T03:37:55.375Z,8.80
2017-10-20T03:42:41.956Z,8.80
2017-10-20T03:47:28.828Z,8.90
2017-10-20T03:52:15.380Z,8.80
2017-10-20T03:57:02.706Z,8.80
2017-10-20T04:01:49.298Z,8.80
2017-10-20T04:06:35.857Z,9.00
2017-10-20T04:11:22.489Z,8.90
2017-10-20T04:16:09.814Z,8.60
2017-10-20T04:20:56.637Z,8.60
2017-10-20T04:25:43.213Z,8.60
2017-10-20T04:30:29.793Z,8.70
2017-10-20T04:35:17.209Z,8.70
2017-10-20T04:40:03.777Z,8.60
2017-10-20T04:44:57.750Z,8.60
2017-10-20T04:49:44.297Z,8.60
2017-10-20T04:54:30.867Z,8.50
2017-10-20T04:59:18.353Z,8.70
2017-10-20T05:04:04.969Z,8.70
2017-10-20T05:08:51.580Z,8.80
2017-10-20T05:13:38.168Z,8.90
2017-10-20T05:18:25.493Z,9.00
2017-10-20T05:23:12.088Z,8.90
2017-10-20T05:27:58.653Z,9.10
2017-10-20T05:32:45.983Z,9.20
2017-10-20T05:37:33.335Z,8.90
2017-10-20T05:42:20.018Z,8.80
2017-10-20T05:47:06.626Z,8.90
2017-10-20T05:51:53.925Z,9.00
2017-10-20T05:56:40.513Z,9.00
2017-10-20T06:01:28.773Z,8.80
2017-10-20T06:06:16.081Z,8.60
2017-10-20T06:11:02.681Z,8.60
2017-10-20T06:15:49.240Z,8.30
2017-10-20T06:20:35.825Z,8.30
2017-10-20T06:25:22.417Z,8.40
2017-10-20T06:30:09.028Z,8.60
2017-10-20T06:34:55.617Z,8.60
2017-10-20T06:39:42.924Z,8.20
2017-10-20T06:44:29.498Z,8.10
2017-10-20T06:49:16.070Z,7.90
2017-10-20T06:54:02.654Z,7.90
2017-10-20T06:58:49.208Z,8.00
2017-10-20T07:03:35.786Z,8.10
2017-10-20T07:08:22.520Z,8.30
2017-10-20T07:13:09.096Z,8.30
2017-10-20T07:17:56.409Z,8.20
2017-10-20T07:22:43.184Z,8.20
2017-10-20T07:27:29.961Z,8.50
2017-10-20T07:32:16.593Z,8.90
2017-10-20T07:37:03.181Z,8.80
2017-10-20T07:41:49.764Z,8.50
2017-10-20T07:46:36.409Z,8.50
2017-10-20T07:51:22.979Z,9.00
2017-10-20T07:56:10.304Z,9.70
2017-10-20T08:00:56.860Z,9.70
2017-10-20T08:05:44.393Z,9.60
2017-10-20T08:10:30.970Z,9.90
2017-10-20T08:15:17.521Z,10.20
2017-10-20T08:20:04.885Z,11.10
2017-10-20T08:24:51.452Z,11.10
2017-10-20T08:29:38.012Z,11.00
2017-10-20T08:34:24.748Z,11.70
2017-10-20T08:39:11.397Z,11.60
2017-10-20T08:43:58.041Z,11.50
2017-10-20T08:48:45.377Z,12.90
2017-10-20T08:53:32.350Z,12.90
2017-10-20T08:58:18.925Z,13.20
2017-10-20T09:03:05.658Z,14.30
2017-10-20T09:07:52.985Z,15.00
2017-10-20T09:12:39.725Z,14.90
2017-10-20T09:17:27.039Z,15.40
2017-10-20T09:22:13.625Z,15.40
2017-10-20T09:27:00.200Z,15.50
2017-10-20T09:31:47.954Z,16.50
2017-10-20T09:36:34.498Z,16.50
2017-10-20T09:41:21.056Z,16.90
2017-10-20T09:46:07.629Z,15.90
2017-10-20T09:56:24.055Z,15.20
2017-10-20T10:01:10.681Z,15.70
2017-10-20T10:05:57.268Z,15.70
2017-10-20T10:10:43.843Z,16.10
2017-10-20T10:15:30.561Z,16.30
2017-10-20T10:20:17.137Z,17.10
2017-10-20T10:25:03.768Z,17.20
2017-10-20T10:29:50.352Z,17.00
2017-10-20T10:34:37.675Z,17.40
2017-10-20T10:39:24.980Z,18.50
2017-10-20T10:44:11.555Z,18.40
2017-10-20T10:48:58.248Z,19.00
2017-10-20T10:53:44.904Z,19.70
2017-10-20T10:58:31.445Z,18.90
2017-10-20T11:03:18.021Z,19.10
2017-10-20T11:08:23.716Z,19.90
2017-10-20T11:13:14.393Z,19.80
2017-10-20T11:18:01.762Z,20.40
2017-10-20T11:22:48.393Z,20.40
2017-10-20T11:27:34.973Z,21.20
2017-10-20T11:32:22.330Z,22.20
2017-10-20T11:37:08.913Z,22.10
2017-10-20T11:41:55.525Z,22.30
2017-10-20T11:46:42.100Z,22.80
2017-10-20T11:51:28.809Z,23.10
2017-10-20T11:56:15.410Z,22.40
2017-10-20T12:01:02.781Z,22.50
2017-10-20T12:05:49.385Z,22.50
2017-10-20T12:10:35.974Z,23.10
2017-10-20T12:15:22.591Z,22.00
2017-10-20T12:20:09.130Z,21.20
2017-10-20T12:24:56.586Z,21.00
2017-10-20T12:29:43.389Z,21.00
2017-10-20T12:34:30.701Z,22.80
2017-10-20T12:39:17.293Z,22.70
2017-10-20T12:44:03.941Z,22.60
2017-10-20T12:48:52.890Z,22.30
2017-10-20T12:53:45.561Z,22.80
2017-10-20T12:58:36.791Z,22.70
2017-10-20T13:03:28.567Z,22.00
2017-10-20T13:08:23.461Z,22.20
2017-10-20T13:13:10.605Z,22.60
2017-10-20T13:17:58.992Z,22.20
2017-10-20T13:22:52.555Z,21.70
2017-10-20T13:27:39.268Z,21.70
2017-10-20T13:32:26.597Z,21.30
2017-10-20T13:37:13.169Z,21.30
2017-10-20T13:41:59.704Z,21.20
2017-10-20T13:46:46.273Z,21.00
2017-10-20T13:51:33.646Z,21.00
2017-10-20T13:56:20.244Z,21.00
2017-10-20T14:01:06.812Z,20.90
2017-10-20T14:05:53.577Z,20.90
2017-10-20T14:10:40.971Z,20.60
2017-10-20T14:15:27.554Z,20.60
2017-10-20T14:20:14.165Z,20.80
2017-10-20T14:25:00.818Z,20.50
2017-10-20T14:29:47.449Z,20.50
2017-10-20T14:34:34.284Z,20.40
2017-10-20T14:39:20.930Z,20.60
2017-10-20T14:44:07.541Z,20.70
2017-10-20T14:48:54.136Z,20.60
2017-10-20T14:53:40.717Z,20.40
2017-10-20T14:58:27.288Z,20.40
2017-10-20T15:03:13.856Z,20.20
2017-10-20T15:08:00.453Z,20.00
2017-10-20T15:12:47.784Z,19.50
2017-10-20T15:17:34.367Z,19.50
2017-10-20T15:22:20.924Z,19.10
2017-10-20T15:27:08.448Z,18.30
2017-10-20T15:31:55.042Z,18.30
2017-10-20T15:36:41.644Z,18.00
2017-10-20T15:41:28.310Z,17.80
2017-10-20T15:46:14.989Z,17.50
2017-10-20T15:51:01.622Z,17.30
2017-10-20T15:55:48.322Z,17.00
2017-10-20T16:00:34.912Z,16.80
2017-10-20T16:05:22.209Z,16.20
2017-10-20T16:10:08.782Z,16.20
2017-10-20T16:14:55.458Z,15.90
2017-10-20T16:19:42.005Z,15.80
2017-10-20T16:24:29.343Z,15.30
2017-10-20T16:29:16.686Z,15.10
2017-10-20T16:34:04.024Z,15.00
2017-10-20T16:38:51.345Z,14.80
2017-10-20T16:43:38.904Z,14.70
2017-10-20T16:48:25.513Z,14.70
2017-10-20T16:53:12.845Z,14.50
2017-10-20T16:57:59.424Z,14.50
2017-10-20T17:02:46.041Z,14.40
2017-10-20T17:07:39.673Z,14.30
2017-10-20T17:12:27.016Z,14.10
2017-10-20T17:17:14.357Z,14.00
2017-10-20T17:22:01.689Z,14.00
2017-10-20T17:26:49.023Z,13.90
2017-10-20T17:31:36.353Z,14.00
2017-10-20T17:36:22.935Z,13.90
2017-10-20T17:41:09.773Z,13.90
2017-10-20T17:45:56.447Z,13.80
2017-10-20T17:50:43.109Z,13.60
2017-10-20T17:55:29.770Z,13.40
2017-10-20T18:00:17.433Z,13.20
2017-10-20T18:05:04.106Z,13.20
2017-10-20T18:09:51.496Z,13.10
2017-10-20T18:14:38.346Z,12.90
2017-10-20T18:19:24.957Z,12.90
2017-10-20T18:24:11.621Z,12.80
2017-10-20T18:28:59.015Z,12.80
2017-10-20T18:33:45.727Z,12.80
2017-10-20T18:38:32.383Z,12.60
2017-10-20T18:43:19.133Z,12.40
2017-10-20T18:48:06.621Z,12.30
2017-10-20T18:52:53.331Z,12.30
2017-10-20T18:57:39.976Z,12.30
2017-10-20T19:02:26.872Z,12.30
2017-10-20T19:07:13.628Z,12.20
2017-10-20T19:12:00.300Z,12.10
2017-10-20T19:16:47.007Z,12.00
2017-10-20T19:21:34.437Z,12.30
2017-10-20T19:26:21.210Z,12.20
2017-10-20T19:31:08.058Z,12.10
2017-10-20T19:35:54.983Z,12.10
2017-10-20T19:40:41.640Z,11.80
2017-10-20T19:45:29.066Z,11.60
2017-10-20T19:50:15.793Z,11.60
2017-10-20T19:55:02.523Z,11.70
2017-10-20T19:59:49.316Z,11.50
2017-10-20T20:04:36.141Z,11.40
2017-10-20T20:09:23.006Z,11.50
2017-10-20T20:14:10.014Z,11.50
2017-10-20T20:18:56.744Z,11.60
2017-10-20T20:23:43.414Z,11.50
2017-10-20T20:28:30.145Z,11.40
2017-10-20T20:38:41.225Z,11.70
2017-10-20T20:43:28.569Z,11.80
2017-10-20T20:48:15.934Z,11.70
2017-10-20T20:53:02.697Z,11.70
2017-10-20T20:57:49.308Z,11.90
2017-10-20T21:02:36.092Z,11.90
2017-10-20T21:07:22.736Z,12.00
2017-10-20T21:12:09.317Z,12.10
2017-10-20T21:16:56.659Z,12.00
2017-10-20T21:21:44.112Z,12.00
2017-10-20T21:26:30.845Z,12.00
2017-10-20T21:31:17.667Z,12.00
2017-10-20T21:36:04.297Z,11.90
2017-10-20T21:40:50.913Z,11.90
2017-10-20T21:45:37.594Z,11.70
2017-10-20T21:50:24.225Z,11.60
2017-10-20T21:55:11.548Z,11.50
2017-10-20T21:59:58.162Z,11.40
2017-10-20T22:04:44.739Z,11.30
2017-10-20T22:09:31.316Z,11.30
2017-10-20T22:14:18.608Z,11.30
2017-10-20T22:19:05.196Z,11.20
2017-10-20T22:23:51.769Z,11.30
2017-10-20T22:28:38.376Z,11.30
2017-10-20T22:33:24.935Z,11.20
2017-10-20T22:38:12.244Z,11.40
2017-10-20T22:42:58.808Z,11.40
2017-10-20T22:47:45.518Z,11.50
2017-10-20T22:52:32.853Z,11.40
2017-10-20T22:57:20.149Z,11.30
2017-10-20T23:02:06.735Z,11.30
2017-10-20T23:06:53.293Z,11.30
2017-10-20T23:11:39.896Z,11.20
2017-10-20T23:16:26.480Z,11.20
2017-10-20T23:21:13.088Z,11.10
2017-10-20T23:25:59.659Z,11.00
2017-10-20T23:30:46.225Z,11.00
2017-10-20T23:35:33.561Z,10.90
2017-10-20T23:40:20.888Z,10.90
2017-10-20T23:45:08.178Z,10.80
2017-10-20T23:49:54.772Z,10.80
2017-10-20T23:54:41.331Z,10.80
2017-10-20T23:59:27.928Z,10.70
